sensor_id;sensor_type;location;lat;lon;timestamp;temperature;humidity
23053;DHT22;11694;-36.632;-64.318;2022-09-29T00:00:31;15.60;1.00
23053;DHT22;11694;-36.632;-64.318;2022-09-29T00:02:58;15.70;1.00
23053;DHT22;11694;-36.632;-64.318;2022-09-29T00:05:26;15.70;1.00
23053;DHT22;11694;-36.632;-64.318;2022-09-29T00:07:53;15.70;1.00
23053;DHT22;11694;-36.632;-64.318;2022-09-29T00:10:20;15.80;1.00
23053;DHT22;11694;-36.632;-64.318;2022-09-29T00:12:47;15.90;99.90
23053;DHT22;11694;-36.632;-64.318;2022-09-29T00:15:14;15.80;99.90
23053;DHT22;11694;-36.632;-64.318;2022-09-29T00:17:41;15.70;99.90
23053;DHT22;11694;-36.632;-64.318;2022-09-29T00:20:08;15.70;1.00
23053;DHT22;11694;-36.632;-64.318;2022-09-29T00:22:35;15.60;1.00
23053;DHT22;11694;-36.632;-64.318;2022-09-29T00:25:03;15.50;1.00
23053;DHT22;11694;-36.632;-64.318;2022-09-29T00:27:30;15.40;1.00
23053;DHT22;11694;-36.632;-64.318;2022-09-29T00:29:57;15.40;1.00
23053;DHT22;11694;-36.632;-64.318;2022-09-29T00:32:24;15.30;1.00
23053;DHT22;11694;-36.632;-64.318;2022-09-29T00:34:51;15.30;1.00
23053;DHT22;11694;-36.632;-64.318;2022-09-29T00:37:19;15.20;1.00
23053;DHT22;11694;-36.632;-64.318;2022-09-29T00:39:46;15.20;1.00
23053;DHT22;11694;-36.632;-64.318;2022-09-29T00:42:17;15.10;1.00
23053;DHT22;11694;-36.632;-64.318;2022-09-29T00:45:23;15.10;1.00
23053;DHT22;11694;-36.632;-64.318;2022-09-29T00:48:00;15.10;1.00
23053;DHT22;11694;-36.632;-64.318;2022-09-29T00:50:50;15.10;1.00
23053;DHT22;11694;-36.632;-64.318;2022-09-29T00:53:19;15.20;1.00
23053;DHT22;11694;-36.632;-64.318;2022-09-29T00:56:07;15.10;1.00
23053;DHT22;11694;-36.632;-64.318;2022-09-29T00:58:43;15.10;99.90
23053;DHT22;11694;-36.632;-64.318;2022-09-29T01:01:11;15.10;1.00
23053;DHT22;11694;-36.632;-64.318;2022-09-29T01:03:42;15.00;99.90
23053;DHT22;11694;-36.632;-64.318;2022-09-29T01:06:24;15.00;99.90
23053;DHT22;11694;-36.632;-64.318;2022-09-29T01:09:03;14.90;99.90
23053;DHT22;11694;-36.632;-64.318;2022-09-29T01:11:31;15.00;99.90
23053;DHT22;11694;-36.632;-64.318;2022-09-29T01:14:02;14.90;99.90
23053;DHT22;11694;-36.632;-64.318;2022-09-29T01:16:34;14.90;99.90
23053;DHT22;11694;-36.632;-64.318;2022-09-29T01:19:11;14.80;99.90
23053;DHT22;11694;-36.632;-64.318;2022-09-29T01:30:04;14.50;1.00
23053;DHT22;11694;-36.632;-64.318;2022-09-29T01:33:00;14.40;1.00
23053;DHT22;11694;-36.632;-64.318;2022-09-29T01:44:51;14.10;1.00
23053;DHT22;11694;-36.632;-64.318;2022-09-29T01:47:29;14.00;1.00
23053;DHT22;11694;-36.632;-64.318;2022-09-29T01:50:05;13.90;1.00
23053;DHT22;11694;-36.632;-64.318;2022-09-29T01:52:42;13.90;1.00
23053;DHT22;11694;-36.632;-64.318;2022-09-29T01:55:14;13.80;1.00
23053;DHT22;11694;-36.632;-64.318;2022-09-29T01:57:53;13.80;1.00
23053;DHT22;11694;-36.632;-64.318;2022-09-29T02:00:21;13.70;1.00
23053;DHT22;11694;-36.632;-64.318;2022-09-29T02:03:20;13.70;1.00
23053;DHT22;11694;-36.632;-64.318;2022-09-29T02:05:55;13.70;1.00
23053;DHT22;11694;-36.632;-64.318;2022-09-29T02:11:10;13.60;1.00
23053;DHT22;11694;-36.632;-64.318;2022-09-29T02:16:17;13.50;1.00
23053;DHT22;11694;-36.632;-64.318;2022-09-29T02:18:59;13.40;1.00
23053;DHT22;11694;-36.632;-64.318;2022-09-29T02:21:28;13.40;1.00
23053;DHT22;11694;-36.632;-64.318;2022-09-29T02:23:56;13.30;1.00
23053;DHT22;11694;-36.632;-64.318;2022-09-29T02:26:27;13.20;1.00
23053;DHT22;11694;-36.632;-64.318;2022-09-29T02:28:56;13.20;1.00
23053;DHT22;11694;-36.632;-64.318;2022-09-29T02:31:24;13.20;1.00
23053;DHT22;11694;-36.632;-64.318;2022-09-29T02:33:51;13.20;1.00
23053;DHT22;11694;-36.632;-64.318;2022-09-29T02:36:30;13.20;1.00
23053;DHT22;11694;-36.632;-64.318;2022-09-29T02:39:25;13.20;1.00
23053;DHT22;11694;-36.632;-64.318;2022-09-29T02:42:00;13.10;1.00
23053;DHT22;11694;-36.632;-64.318;2022-09-29T02:52:33;12.80;1.00
23053;DHT22;11694;-36.632;-64.318;2022-09-29T02:57:48;12.70;1.00
23053;DHT22;11694;-36.632;-64.318;2022-09-29T03:00:17;12.70;1.00
23053;DHT22;11694;-36.632;-64.318;2022-09-29T03:02:45;12.70;1.00
23053;DHT22;11694;-36.632;-64.318;2022-09-29T03:05:18;12.60;1.00
23053;DHT22;11694;-36.632;-64.318;2022-09-29T03:07:46;12.60;1.00
23053;DHT22;11694;-36.632;-64.318;2022-09-29T03:10:15;12.50;1.00
23053;DHT22;11694;-36.632;-64.318;2022-09-29T03:12:42;12.50;1.00
23053;DHT22;11694;-36.632;-64.318;2022-09-29T03:15:10;12.50;1.00
23053;DHT22;11694;-36.632;-64.318;2022-09-29T03:17:40;12.40;1.00
23053;DHT22;11694;-36.632;-64.318;2022-09-29T03:20:08;12.40;1.00
23053;DHT22;11694;-36.632;-64.318;2022-09-29T03:22:35;12.40;1.00
23053;DHT22;11694;-36.632;-64.318;2022-09-29T03:25:03;12.50;1.00
23053;DHT22;11694;-36.632;-64.318;2022-09-29T03:27:32;12.50;1.00
23053;DHT22;11694;-36.632;-64.318;2022-09-29T03:30:02;12.40;1.00
23053;DHT22;11694;-36.632;-64.318;2022-09-29T03:32:29;12.30;1.00
23053;DHT22;11694;-36.632;-64.318;2022-09-29T03:34:56;12.30;1.00
23053;DHT22;11694;-36.632;-64.318;2022-09-29T03:37:23;12.30;3.80
23053;DHT22;11694;-36.632;-64.318;2022-09-29T03:39:50;12.20;5.80
23053;DHT22;11694;-36.632;-64.318;2022-09-29T03:42:17;12.20;5.00
23053;DHT22;11694;-36.632;-64.318;2022-09-29T03:44:48;12.10;2.70
23053;DHT22;11694;-36.632;-64.318;2022-09-29T03:47:15;12.10;6.50
23053;DHT22;11694;-36.632;-64.318;2022-09-29T03:49:42;12.00;1.70
23053;DHT22;11694;-36.632;-64.318;2022-09-29T03:52:09;12.00;1.00
23053;DHT22;11694;-36.632;-64.318;2022-09-29T03:54:36;12.00;1.00
23053;DHT22;11694;-36.632;-64.318;2022-09-29T03:57:03;12.00;1.00
23053;DHT22;11694;-36.632;-64.318;2022-09-29T03:59:30;12.00;1.00
23053;DHT22;11694;-36.632;-64.318;2022-09-29T04:01:57;12.00;1.00
23053;DHT22;11694;-36.632;-64.318;2022-09-29T04:04:24;12.00;1.00
23053;DHT22;11694;-36.632;-64.318;2022-09-29T04:06:51;12.00;1.00
23053;DHT22;11694;-36.632;-64.318;2022-09-29T04:09:18;12.10;1.00
23053;DHT22;11694;-36.632;-64.318;2022-09-29T04:11:45;12.10;1.00
23053;DHT22;11694;-36.632;-64.318;2022-09-29T04:14:13;12.10;1.00
23053;DHT22;11694;-36.632;-64.318;2022-09-29T04:16:40;12.20;1.00
23053;DHT22;11694;-36.632;-64.318;2022-09-29T04:19:07;12.20;1.00
23053;DHT22;11694;-36.632;-64.318;2022-09-29T04:21:34;12.20;1.00
23053;DHT22;11694;-36.632;-64.318;2022-09-29T04:24:01;12.10;1.00
23053;DHT22;11694;-36.632;-64.318;2022-09-29T04:26:28;12.10;1.00
23053;DHT22;11694;-36.632;-64.318;2022-09-29T04:28:56;12.00;1.00
23053;DHT22;11694;-36.632;-64.318;2022-09-29T04:31:23;11.90;1.00
23053;DHT22;11694;-36.632;-64.318;2022-09-29T04:33:50;11.80;1.00
23053;DHT22;11694;-36.632;-64.318;2022-09-29T04:36:18;11.80;1.00
23053;DHT22;11694;-36.632;-64.318;2022-09-29T04:38:45;11.80;1.00
23053;DHT22;11694;-36.632;-64.318;2022-09-29T04:41:13;11.70;9.00
23053;DHT22;11694;-36.632;-64.318;2022-09-29T04:43:40;11.60;4.70
23053;DHT22;11694;-36.632;-64.318;2022-09-29T04:46:08;11.50;8.60
23053;DHT22;11694;-36.632;-64.318;2022-09-29T04:48:36;11.40;12.70
23053;DHT22;11694;-36.632;-64.318;2022-09-29T04:51:04;11.20;20.70
23053;DHT22;11694;-36.632;-64.318;2022-09-29T04:53:31;11.10;22.30
23053;DHT22;11694;-36.632;-64.318;2022-09-29T04:56:03;11.10;27.70
23053;DHT22;11694;-36.632;-64.318;2022-09-29T04:58:30;11.00;29.10
23053;DHT22;11694;-36.632;-64.318;2022-09-29T05:01:06;10.90;28.00
23053;DHT22;11694;-36.632;-64.318;2022-09-29T05:03:34;10.80;33.40
23053;DHT22;11694;-36.632;-64.318;2022-09-29T05:06:01;10.80;40.70
23053;DHT22;11694;-36.632;-64.318;2022-09-29T05:08:28;10.80;45.70
23053;DHT22;11694;-36.632;-64.318;2022-09-29T05:10:55;10.70;49.20
23053;DHT22;11694;-36.632;-64.318;2022-09-29T05:13:22;10.70;46.30
23053;DHT22;11694;-36.632;-64.318;2022-09-29T05:15:54;10.50;45.00
23053;DHT22;11694;-36.632;-64.318;2022-09-29T05:18:23;10.50;49.40
23053;DHT22;11694;-36.632;-64.318;2022-09-29T05:20:50;10.40;54.10
23053;DHT22;11694;-36.632;-64.318;2022-09-29T05:23:18;10.30;58.00
23053;DHT22;11694;-36.632;-64.318;2022-09-29T05:25:45;10.20;62.40
23053;DHT22;11694;-36.632;-64.318;2022-09-29T05:28:13;10.10;67.40
23053;DHT22;11694;-36.632;-64.318;2022-09-29T05:30:43;10.10;70.30
23053;DHT22;11694;-36.632;-64.318;2022-09-29T05:33:10;10.10;77.60
23053;DHT22;11694;-36.632;-64.318;2022-09-29T05:35:37;10.10;81.10
23053;DHT22;11694;-36.632;-64.318;2022-09-29T05:38:04;10.10;82.00
23053;DHT22;11694;-36.632;-64.318;2022-09-29T05:40:31;10.10;87.20
23053;DHT22;11694;-36.632;-64.318;2022-09-29T05:42:58;10.00;90.40
23053;DHT22;11694;-36.632;-64.318;2022-09-29T05:45:26;9.90;93.70
23053;DHT22;11694;-36.632;-64.318;2022-09-29T05:47:53;9.80;95.60
23053;DHT22;11694;-36.632;-64.318;2022-09-29T05:50:21;9.80;96.40
23053;DHT22;11694;-36.632;-64.318;2022-09-29T05:52:48;9.70;95.70
23053;DHT22;11694;-36.632;-64.318;2022-09-29T05:55:18;9.60;95.40
23053;DHT22;11694;-36.632;-64.318;2022-09-29T05:57:48;9.60;95.70
23053;DHT22;11694;-36.632;-64.318;2022-09-29T06:03:06;9.60;99.10
23053;DHT22;11694;-36.632;-64.318;2022-09-29T06:05:36;9.60;98.20
23053;DHT22;11694;-36.632;-64.318;2022-09-29T06:08:04;9.60;98.60
23053;DHT22;11694;-36.632;-64.318;2022-09-29T06:10:31;9.60;98.60
23053;DHT22;11694;-36.632;-64.318;2022-09-29T06:12:59;9.60;96.50
23053;DHT22;11694;-36.632;-64.318;2022-09-29T06:15:28;9.70;95.90
23053;DHT22;11694;-36.632;-64.318;2022-09-29T06:17:59;9.70;95.70
23053;DHT22;11694;-36.632;-64.318;2022-09-29T06:20:29;9.70;96.40
23053;DHT22;11694;-36.632;-64.318;2022-09-29T06:22:57;9.70;96.80
23053;DHT22;11694;-36.632;-64.318;2022-09-29T06:25:24;9.60;97.20
23053;DHT22;11694;-36.632;-64.318;2022-09-29T06:27:51;9.60;98.60
23053;DHT22;11694;-36.632;-64.318;2022-09-29T06:30:18;9.60;96.30
23053;DHT22;11694;-36.632;-64.318;2022-09-29T06:32:45;9.60;96.50
23053;DHT22;11694;-36.632;-64.318;2022-09-29T06:35:12;9.60;96.50
23053;DHT22;11694;-36.632;-64.318;2022-09-29T06:37:57;9.60;93.80
23053;DHT22;11694;-36.632;-64.318;2022-09-29T06:40:25;9.60;93.10
23053;DHT22;11694;-36.632;-64.318;2022-09-29T06:42:53;9.60;93.50
23053;DHT22;11694;-36.632;-64.318;2022-09-29T06:45:20;9.60;93.00
23053;DHT22;11694;-36.632;-64.318;2022-09-29T06:47:47;9.60;92.50
23053;DHT22;11694;-36.632;-64.318;2022-09-29T06:50:14;9.70;92.20
23053;DHT22;11694;-36.632;-64.318;2022-09-29T06:52:41;9.60;91.90
23053;DHT22;11694;-36.632;-64.318;2022-09-29T06:55:09;9.60;91.90
23053;DHT22;11694;-36.632;-64.318;2022-09-29T06:57:36;9.60;92.80
23053;DHT22;11694;-36.632;-64.318;2022-09-29T07:00:06;9.50;92.70
23053;DHT22;11694;-36.632;-64.318;2022-09-29T07:02:33;9.60;94.80
23053;DHT22;11694;-36.632;-64.318;2022-09-29T07:05:00;9.50;95.40
23053;DHT22;11694;-36.632;-64.318;2022-09-29T07:07:27;9.50;95.00
23053;DHT22;11694;-36.632;-64.318;2022-09-29T07:10:14;9.50;95.00
23053;DHT22;11694;-36.632;-64.318;2022-09-29T07:12:41;9.60;94.60
23053;DHT22;11694;-36.632;-64.318;2022-09-29T07:15:12;9.60;93.20
23053;DHT22;11694;-36.632;-64.318;2022-09-29T07:17:39;9.60;92.90
23053;DHT22;11694;-36.632;-64.318;2022-09-29T07:20:07;9.60;93.40
23053;DHT22;11694;-36.632;-64.318;2022-09-29T07:22:34;9.60;93.10
23053;DHT22;11694;-36.632;-64.318;2022-09-29T07:25:01;9.50;94.90
23053;DHT22;11694;-36.632;-64.318;2022-09-29T07:27:28;9.50;94.50
23053;DHT22;11694;-36.632;-64.318;2022-09-29T07:29:55;9.50;94.70
23053;DHT22;11694;-36.632;-64.318;2022-09-29T07:32:22;9.50;93.40
23053;DHT22;11694;-36.632;-64.318;2022-09-29T07:34:49;9.50;95.00
23053;DHT22;11694;-36.632;-64.318;2022-09-29T07:37:16;9.50;94.60
23053;DHT22;11694;-36.632;-64.318;2022-09-29T07:39:43;9.50;94.20
23053;DHT22;11694;-36.632;-64.318;2022-09-29T07:42:11;9.60;93.00
23053;DHT22;11694;-36.632;-64.318;2022-09-29T07:44:38;9.70;81.80
23053;DHT22;11694;-36.632;-64.318;2022-09-29T07:47:05;9.80;78.90
23053;DHT22;11694;-36.632;-64.318;2022-09-29T07:49:32;9.90;79.80
23053;DHT22;11694;-36.632;-64.318;2022-09-29T07:51:59;9.90;75.90
23053;DHT22;11694;-36.632;-64.318;2022-09-29T07:54:26;9.90;77.30
23053;DHT22;11694;-36.632;-64.318;2022-09-29T07:56:53;9.90;76.50
23053;DHT22;11694;-36.632;-64.318;2022-09-29T07:59:20;9.90;73.10
23053;DHT22;11694;-36.632;-64.318;2022-09-29T08:01:48;10.00;73.10
23053;DHT22;11694;-36.632;-64.318;2022-09-29T08:04:15;10.00;74.40
23053;DHT22;11694;-36.632;-64.318;2022-09-29T08:06:42;9.90;77.60
23053;DHT22;11694;-36.632;-64.318;2022-09-29T08:09:09;9.80;76.50
23053;DHT22;11694;-36.632;-64.318;2022-09-29T08:11:41;9.80;89.00
23053;DHT22;11694;-36.632;-64.318;2022-09-29T08:14:09;9.60;91.00
23053;DHT22;11694;-36.632;-64.318;2022-09-29T08:16:37;9.50;90.30
23053;DHT22;11694;-36.632;-64.318;2022-09-29T08:19:04;9.40;92.90
23053;DHT22;11694;-36.632;-64.318;2022-09-29T08:21:32;9.30;94.80
23053;DHT22;11694;-36.632;-64.318;2022-09-29T08:24:03;9.30;94.50
23053;DHT22;11694;-36.632;-64.318;2022-09-29T08:26:35;9.30;97.20
23053;DHT22;11694;-36.632;-64.318;2022-09-29T08:29:03;9.20;98.00
23053;DHT22;11694;-36.632;-64.318;2022-09-29T08:31:30;9.20;97.20
23053;DHT22;11694;-36.632;-64.318;2022-09-29T08:33:59;9.10;97.40
23053;DHT22;11694;-36.632;-64.318;2022-09-29T08:36:26;9.10;99.90
23053;DHT22;11694;-36.632;-64.318;2022-09-29T08:38:55;9.10;99.30
23053;DHT22;11694;-36.632;-64.318;2022-09-29T08:43:59;9.10;99.90
23053;DHT22;11694;-36.632;-64.318;2022-09-29T08:46:40;9.10;98.70
23053;DHT22;11694;-36.632;-64.318;2022-09-29T08:49:34;9.10;99.90
23053;DHT22;11694;-36.632;-64.318;2022-09-29T08:52:20;9.00;99.20
23053;DHT22;11694;-36.632;-64.318;2022-09-29T08:54:52;9.00;99.90
23053;DHT22;11694;-36.632;-64.318;2022-09-29T08:57:20;9.00;99.40
23053;DHT22;11694;-36.632;-64.318;2022-09-29T08:59:57;9.00;99.90
23053;DHT22;11694;-36.632;-64.318;2022-09-29T09:02:45;8.90;99.90
23053;DHT22;11694;-36.632;-64.318;2022-09-29T09:17:57;8.80;99.30
23053;DHT22;11694;-36.632;-64.318;2022-09-29T09:20:44;8.80;99.90
23053;DHT22;11694;-36.632;-64.318;2022-09-29T09:23:50;8.70;99.90
23053;DHT22;11694;-36.632;-64.318;2022-09-29T09:26:08;8.70;99.90
23053;DHT22;11694;-36.632;-64.318;2022-09-29T09:28:49;8.70;99.90
23053;DHT22;11694;-36.632;-64.318;2022-09-29T09:31:41;8.80;99.90
23053;DHT22;11694;-36.632;-64.318;2022-09-29T09:34:37;8.70;99.90
23053;DHT22;11694;-36.632;-64.318;2022-09-29T09:37:07;8.70;99.90
23053;DHT22;11694;-36.632;-64.318;2022-09-29T09:42:17;8.70;98.10
23053;DHT22;11694;-36.632;-64.318;2022-09-29T09:45:41;8.70;96.70
23053;DHT22;11694;-36.632;-64.318;2022-09-29T09:47:46;8.70;94.20
23053;DHT22;11694;-36.632;-64.318;2022-09-29T09:50:19;8.70;94.30
23053;DHT22;11694;-36.632;-64.318;2022-09-29T09:52:58;8.60;91.90
23053;DHT22;11694;-36.632;-64.318;2022-09-29T09:55:27;8.70;94.90
23053;DHT22;11694;-36.632;-64.318;2022-09-29T10:00:45;8.60;97.20
23053;DHT22;11694;-36.632;-64.318;2022-09-29T10:03:13;8.60;96.80
23053;DHT22;11694;-36.632;-64.318;2022-09-29T10:05:43;8.60;93.60
23053;DHT22;11694;-36.632;-64.318;2022-09-29T10:08:29;8.60;96.80
23053;DHT22;11694;-36.632;-64.318;2022-09-29T10:10:58;8.60;94.70
23053;DHT22;11694;-36.632;-64.318;2022-09-29T10:13:28;8.60;94.50
23053;DHT22;11694;-36.632;-64.318;2022-09-29T10:18:42;8.70;94.60
23053;DHT22;11694;-36.632;-64.318;2022-09-29T10:23:59;8.80;90.80
23053;DHT22;11694;-36.632;-64.318;2022-09-29T10:28:59;8.80;85.00
23053;DHT22;11694;-36.632;-64.318;2022-09-29T10:31:36;9.00;89.80
23053;DHT22;11694;-36.632;-64.318;2022-09-29T10:34:15;9.00;85.00
23053;DHT22;11694;-36.632;-64.318;2022-09-29T10:37:01;9.20;83.70
23053;DHT22;11694;-36.632;-64.318;2022-09-29T10:39:43;9.30;84.00
23053;DHT22;11694;-36.632;-64.318;2022-09-29T10:42:31;9.50;79.80
23053;DHT22;11694;-36.632;-64.318;2022-09-29T10:48:07;9.80;72.70
23053;DHT22;11694;-36.632;-64.318;2022-09-29T10:50:49;9.90;73.20
23053;DHT22;11694;-36.632;-64.318;2022-09-29T10:53:40;9.90;80.80
23053;DHT22;11694;-36.632;-64.318;2022-09-29T10:56:19;9.90;67.90
23053;DHT22;11694;-36.632;-64.318;2022-09-29T10:59:01;9.90;76.20
23053;DHT22;11694;-36.632;-64.318;2022-09-29T11:01:31;9.90;75.90
23053;DHT22;11694;-36.632;-64.318;2022-09-29T11:04:01;9.90;71.90
23053;DHT22;11694;-36.632;-64.318;2022-09-29T11:06:35;9.90;80.20
23053;DHT22;11694;-36.632;-64.318;2022-09-29T11:09:22;10.00;90.00
23053;DHT22;11694;-36.632;-64.318;2022-09-29T11:11:57;10.20;84.90
23053;DHT22;11694;-36.632;-64.318;2022-09-29T11:14:40;10.40;76.70
23053;DHT22;11694;-36.632;-64.318;2022-09-29T11:17:29;10.70;88.60
23053;DHT22;11694;-36.632;-64.318;2022-09-29T11:20:02;11.20;68.10
23053;DHT22;11694;-36.632;-64.318;2022-09-29T11:33:36;11.90;48.20
23053;DHT22;11694;-36.632;-64.318;2022-09-29T11:39:07;12.10;26.20
23053;DHT22;11694;-36.632;-64.318;2022-09-29T11:44:53;12.10;30.60
23053;DHT22;11694;-36.632;-64.318;2022-09-29T11:47:37;12.40;34.80
23053;DHT22;11694;-36.632;-64.318;2022-09-29T11:50:20;12.40;25.70
23053;DHT22;11694;-36.632;-64.318;2022-09-29T11:55:50;13.10;16.70
23053;DHT22;11694;-36.632;-64.318;2022-09-29T12:04:02;13.40;10.50
23053;DHT22;11694;-36.632;-64.318;2022-09-29T12:12:02;13.50;11.40
23053;DHT22;11694;-36.632;-64.318;2022-09-29T12:14:45;13.70;8.80
23053;DHT22;11694;-36.632;-64.318;2022-09-29T12:17:15;14.00;1.00
23053;DHT22;11694;-36.632;-64.318;2022-09-29T12:19:56;14.00;1.00
23053;DHT22;11694;-36.632;-64.318;2022-09-29T12:22:25;14.10;1.00
23053;DHT22;11694;-36.632;-64.318;2022-09-29T12:24:55;14.10;1.00
23053;DHT22;11694;-36.632;-64.318;2022-09-29T12:27:32;14.30;5.60
23053;DHT22;11694;-36.632;-64.318;2022-09-29T12:30:28;14.40;7.30
23053;DHT22;11694;-36.632;-64.318;2022-09-29T12:33:04;14.80;1.70
23053;DHT22;11694;-36.632;-64.318;2022-09-29T12:39:08;15.10;1.00
23053;DHT22;11694;-36.632;-64.318;2022-09-29T12:41:43;15.20;1.00
23053;DHT22;11694;-36.632;-64.318;2022-09-29T12:44:32;15.40;1.00
23053;DHT22;11694;-36.632;-64.318;2022-09-29T12:58:17;16.50;1.00
23053;DHT22;11694;-36.632;-64.318;2022-09-29T13:00:53;16.90;1.00
23053;DHT22;11694;-36.632;-64.318;2022-09-29T13:12:08;17.50;1.00
23053;DHT22;11694;-36.632;-64.318;2022-09-29T13:18:03;17.20;1.00
23053;DHT22;11694;-36.632;-64.318;2022-09-29T13:20:47;17.20;1.00
23053;DHT22;11694;-36.632;-64.318;2022-09-29T13:23:46;17.10;1.00
23053;DHT22;11694;-36.632;-64.318;2022-09-29T13:26:37;17.40;1.00
23053;DHT22;11694;-36.632;-64.318;2022-09-29T13:29:21;17.50;1.00
23053;DHT22;11694;-36.632;-64.318;2022-09-29T13:31:50;17.50;1.00
23053;DHT22;11694;-36.632;-64.318;2022-09-29T13:34:32;17.40;1.00
23053;DHT22;11694;-36.632;-64.318;2022-09-29T13:37:24;17.30;1.00
23053;DHT22;11694;-36.632;-64.318;2022-09-29T13:40:01;17.30;1.00
23053;DHT22;11694;-36.632;-64.318;2022-09-29T13:42:47;17.40;1.00
23053;DHT22;11694;-36.632;-64.318;2022-09-29T13:47:56;17.70;1.00
23053;DHT22;11694;-36.632;-64.318;2022-09-29T13:50:43;18.00;1.00
23053;DHT22;11694;-36.632;-64.318;2022-09-29T13:56:10;18.60;1.00
23053;DHT22;11694;-36.632;-64.318;2022-09-29T14:01:11;19.20;1.00
23053;DHT22;11694;-36.632;-64.318;2022-09-29T14:03:55;19.50;99.90
23053;DHT22;11694;-36.632;-64.318;2022-09-29T14:06:26;19.80;99.90
23053;DHT22;11694;-36.632;-64.318;2022-09-29T14:09:25;19.90;99.90
23053;DHT22;11694;-36.632;-64.318;2022-09-29T14:12:01;19.70;99.90
23053;DHT22;11694;-36.632;-64.318;2022-09-29T14:14:38;19.60;99.90
23053;DHT22;11694;-36.632;-64.318;2022-09-29T14:17:37;19.50;99.90
23053;DHT22;11694;-36.632;-64.318;2022-09-29T14:38:38;22.20;99.90
23053;DHT22;11694;-36.632;-64.318;2022-09-29T15:00:11;23.10;99.90
23053;DHT22;11694;-36.632;-64.318;2022-09-29T15:02:46;23.20;99.90
23053;DHT22;11694;-36.632;-64.318;2022-09-29T15:05:28;23.40;99.90
23053;DHT22;11694;-36.632;-64.318;2022-09-29T15:07:56;23.10;99.90
23053;DHT22;11694;-36.632;-64.318;2022-09-29T15:10:37;22.90;99.90
23053;DHT22;11694;-36.632;-64.318;2022-09-29T15:13:34;22.70;99.90
23053;DHT22;11694;-36.632;-64.318;2022-09-29T15:16:20;22.40;99.90
23053;DHT22;11694;-36.632;-64.318;2022-09-29T15:26:31;22.40;99.90
23053;DHT22;11694;-36.632;-64.318;2022-09-29T15:29:00;22.50;99.90
23053;DHT22;11694;-36.632;-64.318;2022-09-29T15:31:32;22.60;99.90
23053;DHT22;11694;-36.632;-64.318;2022-09-29T15:34:01;22.40;99.90
23053;DHT22;11694;-36.632;-64.318;2022-09-29T15:36:37;22.40;99.90
23053;DHT22;11694;-36.632;-64.318;2022-09-29T15:42:23;22.50;99.90
23053;DHT22;11694;-36.632;-64.318;2022-09-29T15:45:01;22.30;99.90
23053;DHT22;11694;-36.632;-64.318;2022-09-29T15:47:38;22.20;99.90
23053;DHT22;11694;-36.632;-64.318;2022-09-29T15:50:18;22.10;99.90
23053;DHT22;11694;-36.632;-64.318;2022-09-29T15:52:46;21.80;99.90
23053;DHT22;11694;-36.632;-64.318;2022-09-29T15:55:16;21.60;99.90
23053;DHT22;11694;-36.632;-64.318;2022-09-29T15:57:45;21.60;99.90
23053;DHT22;11694;-36.632;-64.318;2022-09-29T16:05:34;21.80;99.90
23053;DHT22;11694;-36.632;-64.318;2022-09-29T16:08:13;22.20;99.90
23053;DHT22;11694;-36.632;-64.318;2022-09-29T16:10:57;22.70;99.90
23053;DHT22;11694;-36.632;-64.318;2022-09-29T16:13:28;23.00;99.90
23053;DHT22;11694;-36.632;-64.318;2022-09-29T16:16:09;23.10;99.90
23053;DHT22;11694;-36.632;-64.318;2022-09-29T16:18:40;23.10;99.90
23053;DHT22;11694;-36.632;-64.318;2022-09-29T16:21:17;23.40;99.90
23053;DHT22;11694;-36.632;-64.318;2022-09-29T16:24:03;23.60;99.90
23053;DHT22;11694;-36.632;-64.318;2022-09-29T16:31:41;23.90;99.90
23053;DHT22;11694;-36.632;-64.318;2022-09-29T16:37:13;23.50;99.90
23053;DHT22;11694;-36.632;-64.318;2022-09-29T16:39:47;23.20;99.90
23053;DHT22;11694;-36.632;-64.318;2022-09-29T16:42:25;23.00;99.90
23053;DHT22;11694;-36.632;-64.318;2022-09-29T16:44:54;23.20;99.90
23053;DHT22;11694;-36.632;-64.318;2022-09-29T16:47:24;23.40;99.90
23053;DHT22;11694;-36.632;-64.318;2022-09-29T16:50:03;23.50;99.90
23053;DHT22;11694;-36.632;-64.318;2022-09-29T16:52:46;23.70;99.90
23053;DHT22;11694;-36.632;-64.318;2022-09-29T16:57:56;23.90;99.90
23053;DHT22;11694;-36.632;-64.318;2022-09-29T17:00:25;23.80;99.90
23053;DHT22;11694;-36.632;-64.318;2022-09-29T17:02:53;23.50;99.90
23053;DHT22;11694;-36.632;-64.318;2022-09-29T17:05:25;23.20;99.90
23053;DHT22;11694;-36.632;-64.318;2022-09-29T17:08:03;23.10;99.90
23053;DHT22;11694;-36.632;-64.318;2022-09-29T17:10:32;23.10;99.90
23053;DHT22;11694;-36.632;-64.318;2022-09-29T17:12:59;23.10;99.90
23053;DHT22;11694;-36.632;-64.318;2022-09-29T17:15:27;22.90;99.90
23053;DHT22;11694;-36.632;-64.318;2022-09-29T17:17:56;22.70;99.90
23053;DHT22;11694;-36.632;-64.318;2022-09-29T17:20:23;22.60;99.90
23053;DHT22;11694;-36.632;-64.318;2022-09-29T17:22:55;22.50;99.90
23053;DHT22;11694;-36.632;-64.318;2022-09-29T17:25:24;22.60;99.90
23053;DHT22;11694;-36.632;-64.318;2022-09-29T17:27:51;22.70;99.90
23053;DHT22;11694;-36.632;-64.318;2022-09-29T17:30:39;22.80;99.90
23053;DHT22;11694;-36.632;-64.318;2022-09-29T17:33:08;22.90;99.90
23053;DHT22;11694;-36.632;-64.318;2022-09-29T17:35:49;23.00;99.90
23053;DHT22;11694;-36.632;-64.318;2022-09-29T17:38:17;23.00;99.90
23053;DHT22;11694;-36.632;-64.318;2022-09-29T17:41:00;22.90;99.90
23053;DHT22;11694;-36.632;-64.318;2022-09-29T17:43:28;23.10;99.90
23053;DHT22;11694;-36.632;-64.318;2022-09-29T17:45:57;23.40;99.90
23053;DHT22;11694;-36.632;-64.318;2022-09-29T17:48:25;23.80;99.90
23053;DHT22;11694;-36.632;-64.318;2022-09-29T17:50:54;24.10;99.90
23053;DHT22;11694;-36.632;-64.318;2022-09-29T17:53:24;24.00;99.90
23053;DHT22;11694;-36.632;-64.318;2022-09-29T17:55:54;24.20;99.90
23053;DHT22;11694;-36.632;-64.318;2022-09-29T17:58:22;24.40;99.90
23053;DHT22;11694;-36.632;-64.318;2022-09-29T18:00:52;24.70;99.90
23053;DHT22;11694;-36.632;-64.318;2022-09-29T18:03:20;24.70;99.90
23053;DHT22;11694;-36.632;-64.318;2022-09-29T18:05:52;24.50;99.90
23053;DHT22;11694;-36.632;-64.318;2022-09-29T18:08:26;24.30;99.90
23053;DHT22;11694;-36.632;-64.318;2022-09-29T18:10:56;24.10;99.90
23053;DHT22;11694;-36.632;-64.318;2022-09-29T18:13:25;24.20;99.90
23053;DHT22;11694;-36.632;-64.318;2022-09-29T18:15:54;24.40;99.90
23053;DHT22;11694;-36.632;-64.318;2022-09-29T18:18:22;24.50;99.90
23053;DHT22;11694;-36.632;-64.318;2022-09-29T18:20:49;24.50;99.90
23053;DHT22;11694;-36.632;-64.318;2022-09-29T18:23:17;24.30;99.90
23053;DHT22;11694;-36.632;-64.318;2022-09-29T18:25:47;24.00;99.90
23053;DHT22;11694;-36.632;-64.318;2022-09-29T18:28:16;23.70;99.90
23053;DHT22;11694;-36.632;-64.318;2022-09-29T18:30:46;23.60;99.90
23053;DHT22;11694;-36.632;-64.318;2022-09-29T18:33:16;24.00;99.90
23053;DHT22;11694;-36.632;-64.318;2022-09-29T18:35:45;24.30;99.90
23053;DHT22;11694;-36.632;-64.318;2022-09-29T18:38:12;24.40;99.90
23053;DHT22;11694;-36.632;-64.318;2022-09-29T18:40:39;24.60;99.90
23053;DHT22;11694;-36.632;-64.318;2022-09-29T18:43:08;24.40;99.90
23053;DHT22;11694;-36.632;-64.318;2022-09-29T18:45:37;24.10;99.90
23053;DHT22;11694;-36.632;-64.318;2022-09-29T18:48:10;23.90;99.90